createdAt,value
2019-04-14T00:00:19.274Z,9.03
2019-04-14T00:02:53.366Z,8.97
2019-04-14T00:05:21.102Z,8.10
2019-04-14T00:07:49.550Z,8.70
2019-04-14T00:10:22.457Z,9.10
2019-04-14T00:12:51.292Z,9.07
2019-04-14T00:15:30.302Z,8.90
2019-04-14T00:17:52.528Z,9.77
2019-04-14T00:20:20.725Z,9.00
2019-04-14T00:22:51.122Z,9.20
2019-04-14T00:25:19.466Z,9.77
2019-04-14T00:27:47.533Z,9.87
2019-04-14T00:30:18.659Z,9.30
2019-04-14T00:32:50.961Z,10.17
2019-04-14T00:35:27.716Z,9.27
2019-04-14T00:38:15.125Z,10.43
2019-04-14T00:40:53.993Z,10.00
2019-04-14T00:43:42.011Z,10.93
2019-04-14T00:46:16.837Z,11.23
2019-04-14T00:48:47.465Z,9.50
2019-04-14T00:51:15.560Z,11.67
2019-04-14T00:53:43.223Z,10.20
2019-04-14T00:56:11.219Z,10.60
2019-04-14T00:58:41.365Z,9.73
2019-04-14T01:01:09.087Z,11.03
2019-04-14T01:03:37.341Z,10.20
2019-04-14T01:06:05.459Z,11.07
2019-04-14T01:08:33.526Z,11.00
2019-04-14T01:11:01.186Z,11.47
2019-04-14T01:13:31.001Z,10.93
2019-04-14T01:16:07.234Z,11.37
2019-04-14T01:18:28.269Z,10.80
2019-04-14T01:20:56.384Z,11.43
2019-04-14T01:23:24.236Z,11.07
2019-04-14T01:25:52.089Z,11.27
2019-04-14T01:28:20.102Z,10.40
2019-04-14T01:30:48.059Z,11.93
2019-04-14T01:33:16.282Z,11.43
2019-04-14T01:35:44.393Z,12.10
2019-04-14T01:38:12.539Z,11.73
2019-04-14T01:40:40.394Z,11.70
2019-04-14T01:43:08.525Z,12.50
2019-04-14T01:45:36.084Z,12.00
2019-04-14T01:48:03.936Z,12.70
2019-04-14T01:50:43.068Z,11.67
2019-04-14T01:53:25.046Z,13.33
2019-04-14T01:55:59.274Z,12.47
2019-04-14T01:58:36.029Z,11.53
2019-04-14T02:01:26.054Z,13.23
2019-04-14T02:03:54.157Z,13.13
2019-04-14T02:06:22.315Z,11.77
2019-04-14T02:08:50.188Z,13.20
2019-04-14T02:11:18.305Z,14.00
2019-04-14T02:13:46.497Z,12.87
2019-04-14T02:16:24.928Z,14.53
2019-04-14T02:18:44.801Z,13.17
2019-04-14T02:21:12.878Z,13.77
2019-04-14T02:23:43.556Z,15.20
2019-04-14T02:26:11.319Z,14.53
2019-04-14T02:28:39.662Z,14.53
2019-04-14T02:31:18.071Z,14.63
2019-04-14T02:34:09.049Z,14.10
2019-04-14T02:36:41.695Z,14.70
2019-04-14T02:44:05.908Z,14.47
2019-04-14T02:46:39.943Z,13.70
2019-04-14T02:48:58.418Z,13.80
2019-04-14T02:51:42.473Z,14.60
2019-04-14T02:54:05.065Z,14.50
2019-04-14T02:56:27.979Z,14.37
2019-04-14T02:58:58.301Z,14.97
2019-04-14T03:01:29.876Z,15.77
2019-04-14T03:04:17.049Z,14.50
2019-04-14T03:06:27.567Z,16.10
2019-04-14T03:11:32.644Z,15.40
2019-04-14T03:13:58.547Z,16.87
2019-04-14T03:16:33.005Z,16.10
2019-04-14T03:19:14.553Z,15.43
2019-04-14T03:22:12.310Z,15.93
2019-04-14T03:24:39.311Z,16.97
2019-04-14T03:30:48.696Z,15.80
2019-04-14T03:35:51.074Z,16.53
2019-04-14T03:40:21.806Z,16.10
2019-04-14T03:42:53.798Z,16.43
2019-04-14T03:45:28.176Z,17.30
2019-04-14T03:47:54.346Z,16.27
2019-04-14T03:50:13.678Z,17.30
2019-04-14T03:53:15.864Z,17.93
2019-04-14T03:55:08.063Z,18.73
2019-04-14T03:57:17.298Z,17.90
2019-04-14T03:59:45.658Z,18.10
2019-04-14T04:02:14.016Z,19.67
2019-04-14T04:04:42.342Z,20.03
2019-04-14T04:07:12.478Z,19.10
2019-04-14T04:09:49.695Z,19.30
2019-04-14T04:12:18.177Z,20.27
2019-04-14T04:14:46.384Z,19.07
2019-04-14T04:17:32.168Z,19.33
2019-04-14T04:20:18.096Z,20.70
2019-04-14T04:23:05.111Z,19.10
2019-04-14T04:25:40.570Z,19.13
2019-04-14T04:28:26.374Z,18.60
2019-04-14T04:30:59.137Z,20.00
2019-04-14T04:33:34.786Z,20.37
2019-04-14T04:36:09.531Z,20.67
2019-04-14T04:38:47.348Z,20.37
2019-04-14T04:41:14.826Z,19.03
2019-04-14T04:43:43.013Z,20.37
2019-04-14T04:46:11.327Z,21.07
2019-04-14T04:48:39.268Z,20.30
2019-04-14T04:51:07.245Z,19.97
2019-04-14T04:53:35.386Z,20.87
2019-04-14T04:56:04.111Z,19.90
2019-04-14T04:58:32.673Z,21.07
2019-04-14T05:01:01.452Z,21.77
2019-04-14T05:03:29.720Z,21.23
2019-04-14T05:06:31.020Z,22.77
2019-04-14T05:09:14.994Z,23.93
2019-04-14T05:11:46.997Z,22.80
2019-04-14T05:14:22.115Z,22.03
2019-04-14T05:16:50.785Z,23.30
2019-04-14T05:19:25.836Z,23.50
2019-04-14T05:21:49.515Z,22.50
2019-04-14T05:24:17.920Z,23.10
2019-04-14T05:26:48.367Z,23.57
2019-04-14T05:29:16.744Z,23.77
2019-04-14T05:31:44.730Z,24.23
2019-04-14T05:34:12.922Z,23.83
2019-04-14T05:36:41.128Z,23.80
2019-04-14T05:39:09.003Z,24.17
2019-04-14T05:41:37.504Z,23.17
2019-04-14T05:44:06.282Z,23.53
2019-04-14T05:46:33.975Z,22.93
2019-04-14T05:49:02.213Z,21.47
2019-04-14T05:51:30.512Z,24.73
2019-04-14T05:53:59.370Z,23.00
2019-04-14T05:56:27.499Z,23.90
2019-04-14T05:58:57.999Z,23.37
2019-04-14T06:01:25.582Z,24.07
2019-04-14T06:03:53.903Z,24.43
2019-04-14T06:06:21.560Z,25.87
2019-04-14T06:08:49.098Z,25.20
2019-04-14T06:11:16.629Z,24.17
2019-04-14T06:13:44.209Z,24.20
2019-04-14T06:16:11.797Z,24.80
2019-04-14T06:18:39.324Z,24.73
2019-04-14T06:21:06.885Z,23.00
2019-04-14T06:23:34.739Z,24.60
2019-04-14T06:26:02.319Z,23.03
2019-04-14T06:28:30.305Z,24.23
2019-04-14T06:31:26.347Z,23.17
2019-04-14T06:34:01.555Z,24.83
2019-04-14T06:36:51.605Z,24.10
2019-04-14T06:39:27.622Z,25.03
2019-04-14T06:41:55.322Z,23.37
2019-04-14T06:44:22.883Z,25.40
2019-04-14T06:46:50.398Z,24.53
2019-04-14T06:49:17.908Z,25.20
2019-04-14T06:51:45.412Z,25.27
2019-04-14T06:54:12.815Z,27.80
2019-04-14T06:56:40.616Z,26.23
2019-04-14T06:59:08.115Z,27.37
2019-04-14T07:01:35.683Z,25.87
2019-04-14T07:04:03.172Z,27.77
2019-04-14T07:06:30.924Z,25.53
2019-04-14T07:08:58.506Z,29.03
2019-04-14T07:11:29.191Z,28.30
2019-04-14T07:13:56.661Z,29.23
2019-04-14T07:16:24.270Z,31.73
2019-04-14T07:18:51.780Z,30.10
2019-04-14T07:21:19.349Z,32.17
2019-04-14T07:23:47.306Z,29.07
2019-04-14T07:26:15.017Z,30.30
2019-04-14T07:28:42.526Z,28.50
2019-04-14T07:31:28.364Z,31.23
2019-04-14T07:34:18.528Z,30.63
2019-04-14T07:36:56.059Z,27.13
2019-04-14T07:39:49.281Z,29.20
2019-04-14T07:42:36.319Z,37.30
2019-04-14T07:45:36.076Z,34.93
2019-04-14T07:48:11.614Z,31.10
2019-04-14T07:50:50.438Z,30.57
2019-04-14T07:53:34.174Z,32.23
2019-04-14T07:56:24.128Z,39.73
2019-04-14T07:59:05.765Z,35.97
2019-04-14T08:01:53.574Z,31.77
2019-04-14T08:04:29.940Z,31.80
2019-04-14T08:06:58.741Z,30.87
2019-04-14T08:09:31.062Z,31.50
2019-04-14T08:12:00.628Z,30.67
2019-04-14T08:14:28.320Z,32.10
2019-04-14T08:17:00.752Z,32.83
2019-04-14T08:19:30.049Z,32.70
2019-04-14T08:21:57.700Z,33.00
2019-04-14T08:24:31.214Z,34.37
2019-04-14T08:27:06.150Z,33.13
2019-04-14T08:29:33.698Z,31.23
2019-04-14T08:32:01.325Z,32.80
2019-04-14T08:34:31.610Z,34.30
2019-04-14T08:37:00.191Z,34.60
2019-04-14T08:39:27.809Z,33.80
2019-04-14T08:42:14.925Z,33.50
2019-04-14T08:44:48.007Z,34.77
2019-04-14T08:47:33.723Z,32.53
2019-04-14T08:50:14.798Z,33.27
2019-04-14T08:53:11.025Z,33.63
2019-04-14T08:56:04.096Z,31.80
2019-04-14T08:58:49.883Z,31.37
2019-04-14T09:01:24.073Z,32.33
2019-04-14T09:04:26.073Z,33.20
2019-04-14T09:07:19.151Z,31.30
2019-04-14T09:09:51.205Z,32.63
2019-04-14T09:12:26.681Z,34.47
2019-04-14T09:14:57.197Z,35.67
2019-04-14T09:17:26.246Z,36.33
2019-04-14T09:19:53.813Z,34.73
2019-04-14T09:22:21.421Z,32.97
2019-04-14T09:24:49.029Z,34.27
2019-04-14T09:27:16.575Z,33.40
2019-04-14T09:29:44.163Z,34.83
2019-04-14T09:32:12.533Z,34.03
2019-04-14T09:34:40.076Z,34.43
2019-04-14T09:37:07.882Z,33.40
2019-04-14T09:39:37.883Z,33.23
2019-04-14T09:42:04.805Z,34.77
2019-04-14T09:44:32.388Z,33.70
2019-04-14T09:47:02.393Z,32.37
2019-04-14T09:49:29.911Z,33.87
2019-04-14T09:51:57.429Z,35.10
2019-04-14T09:54:25.324Z,34.23
2019-04-14T09:56:58.096Z,34.23
2019-04-14T09:59:25.637Z,32.77
2019-04-14T10:01:56.405Z,32.87
2019-04-14T10:04:23.984Z,33.13
2019-04-14T10:06:51.605Z,33.53
2019-04-14T10:09:19.437Z,34.20
2019-04-14T10:11:48.817Z,34.03
2019-04-14T10:14:16.435Z,34.53
2019-04-14T10:16:44.079Z,35.70
2019-04-14T10:19:13.123Z,34.97
2019-04-14T10:21:40.674Z,34.00
2019-04-14T10:24:08.179Z,32.83
2019-04-14T10:26:35.617Z,34.00
2019-04-14T10:29:03.133Z,34.63
2019-04-14T10:31:30.848Z,35.70
2019-04-14T10:33:58.375Z,35.43
2019-04-14T10:36:25.911Z,36.70
2019-04-14T10:38:53.375Z,35.83
2019-04-14T10:41:20.923Z,35.73
2019-04-14T10:43:48.501Z,36.73
2019-04-14T10:46:16.248Z,36.03
2019-04-14T10:48:43.813Z,35.60
2019-04-14T10:51:11.351Z,36.40
2019-04-14T10:53:38.875Z,36.83
2019-04-14T10:56:06.414Z,37.03
2019-04-14T10:58:33.944Z,34.50
2019-04-14T11:01:01.426Z,33.87
2019-04-14T11:03:28.958Z,33.27
2019-04-14T11:06:25.734Z,33.23
2019-04-14T11:08:53.266Z,32.47
2019-04-14T11:11:20.862Z,33.50
2019-04-14T11:13:48.576Z,33.67
2019-04-14T11:16:16.276Z,33.60
2019-04-14T11:18:44.963Z,32.73
2019-04-14T11:21:12.428Z,34.93
2019-04-14T11:23:39.990Z,31.93
2019-04-14T11:26:07.598Z,34.43
2019-04-14T11:28:35.119Z,32.33
2019-04-14T11:31:07.680Z,34.47
2019-04-14T11:33:54.783Z,33.57
2019-04-14T11:36:48.291Z,31.50
2019-04-14T11:39:18.665Z,32.30
2019-04-14T11:41:46.319Z,32.40
2019-04-14T11:44:13.922Z,31.83
2019-04-14T11:46:46.954Z,32.73
2019-04-14T11:49:14.854Z,32.53
2019-04-14T11:51:54.401Z,34.63
2019-04-14T11:54:12.092Z,31.37
2019-04-14T11:56:45.139Z,32.67
2019-04-14T11:59:13.047Z,31.53
2019-04-14T12:01:58.302Z,30.70
2019-04-14T12:04:30.628Z,31.53
2019-04-14T12:07:24.486Z,31.17
2019-04-14T12:10:01.267Z,31.70
2019-04-14T12:12:28.903Z,29.07
2019-04-14T12:14:56.532Z,30.47
2019-04-14T12:17:28.494Z,29.87
2019-04-14T12:19:56.039Z,31.73
2019-04-14T12:22:23.717Z,29.50
2019-04-14T12:24:51.291Z,30.40
2019-04-14T12:27:18.796Z,29.97
2019-04-14T12:29:47.956Z,30.23
2019-04-14T12:32:17.214Z,30.47
2019-04-14T12:34:44.833Z,29.47
2019-04-14T12:37:12.531Z,30.33
2019-04-14T12:39:40.231Z,28.60
2019-04-14T12:42:36.272Z,29.10
2019-04-14T12:45:24.244Z,30.23
2019-04-14T12:48:17.269Z,28.90
2019-04-14T12:50:57.849Z,28.07
2019-04-14T12:53:25.409Z,28.37
2019-04-14T12:55:54.893Z,28.13
2019-04-14T12:58:31.195Z,27.20
2019-04-14T13:01:03.541Z,26.93
2019-04-14T13:03:33.395Z,27.33
2019-04-14T13:06:03.104Z,26.53
2019-04-14T13:08:30.719Z,25.53
2019-04-14T13:10:58.359Z,26.57
2019-04-14T13:13:25.941Z,27.17
2019-04-14T13:15:53.493Z,25.93
2019-04-14T13:18:21.282Z,26.13
2019-04-14T13:20:48.828Z,26.87
2019-04-14T13:23:17.529Z,25.77
2019-04-14T13:25:45.081Z,25.43
2019-04-14T13:28:12.592Z,25.33
2019-04-14T13:30:43.300Z,25.50
2019-04-14T13:33:10.837Z,25.33
2019-04-14T13:35:38.406Z,25.07
2019-04-14T13:38:06.153Z,25.50
2019-04-14T13:40:33.733Z,26.80
2019-04-14T13:43:01.333Z,26.43
2019-04-14T13:45:30.130Z,25.50
2019-04-14T13:47:57.860Z,24.07
2019-04-14T13:50:25.418Z,23.53
2019-04-14T13:52:53.075Z,24.93
2019-04-14T13:55:20.673Z,24.27
2019-04-14T13:57:48.258Z,24.30
2019-04-14T14:00:16.252Z,25.03
2019-04-14T14:02:43.810Z,24.23
2019-04-14T14:05:11.533Z,23.63
2019-04-14T14:07:39.109Z,25.00
2019-04-14T14:10:07.387Z,25.17
2019-04-14T14:12:46.239Z,24.83
2019-04-14T14:15:31.786Z,25.00
2019-04-14T14:18:17.531Z,23.77
2019-04-14T14:21:01.543Z,22.67
2019-04-14T14:23:46.957Z,21.97
2019-04-14T14:26:18.708Z,22.97
2019-04-14T14:28:48.647Z,23.27
2019-04-14T14:31:17.770Z,21.63
2019-04-14T14:33:45.819Z,21.23
2019-04-14T14:36:14.552Z,19.97
2019-04-14T14:38:42.084Z,19.40
2019-04-14T14:41:11.619Z,18.93
2019-04-14T14:43:39.257Z,19.10
2019-04-14T14:46:36.924Z,18.67
2019-04-14T14:49:30.094Z,18.37
2019-04-14T14:52:11.392Z,18.13
2019-04-14T14:54:38.810Z,18.00
2019-04-14T14:57:06.372Z,17.77
2019-04-14T14:59:34.466Z,18.37
2019-04-14T15:02:02.017Z,17.30
2019-04-14T15:04:29.575Z,17.90
2019-04-14T15:06:57.200Z,17.60
2019-04-14T15:09:26.111Z,17.00
2019-04-14T15:11:53.642Z,17.53
2019-04-14T15:14:21.099Z,16.93
2019-04-14T15:16:54.406Z,17.30
2019-04-14T15:19:21.986Z,17.43
2019-04-14T15:21:49.534Z,17.20
2019-04-14T15:24:17.584Z,17.40
2019-04-14T15:26:45.276Z,17.47
2019-04-14T15:29:12.825Z,17.43
2019-04-14T15:31:40.424Z,16.70
2019-04-14T15:34:10.544Z,17.30
2019-04-14T15:36:47.092Z,16.63
2019-04-14T15:39:14.669Z,16.23
2019-04-14T15:41:42.210Z,17.40
2019-04-14T15:44:10.000Z,16.97
2019-04-14T15:46:39.751Z,16.80
2019-04-14T15:49:07.535Z,16.90
2019-04-14T15:51:35.174Z,17.20
2019-04-14T15:54:02.680Z,15.50
2019-04-14T15:57:04.956Z,15.90
2019-04-14T15:59:44.047Z,16.20
2019-04-14T16:02:31.079Z,16.27
2019-04-14T16:05:24.260Z,15.03
2019-04-14T16:08:11.426Z,16.07
2019-04-14T16:10:51.860Z,15.03
2019-04-14T16:13:26.991Z,15.87
2019-04-14T16:16:14.080Z,15.40
2019-04-14T16:19:05.220Z,15.27
2019-04-14T16:21:33.872Z,14.27
2019-04-14T16:24:01.546Z,15.03
2019-04-14T16:26:47.381Z,15.10
2019-04-14T16:29:21.333Z,14.60
2019-04-14T16:32:04.049Z,13.93
2019-04-14T16:34:35.510Z,13.33
2019-04-14T16:37:03.029Z,13.07
2019-04-14T16:39:30.627Z,13.50
2019-04-14T16:41:58.563Z,12.63
2019-04-14T16:44:26.168Z,12.60
2019-04-14T16:46:53.751Z,13.07
2019-04-14T16:49:21.272Z,13.07
2019-04-14T16:51:54.853Z,13.07
2019-04-14T16:54:51.478Z,12.60
2019-04-14T16:57:36.965Z,12.90
2019-04-14T17:00:05.848Z,12.47
2019-04-14T17:02:33.404Z,13.07
2019-04-14T17:05:01.204Z,13.03
2019-04-14T17:07:28.723Z,12.80
2019-04-14T17:09:56.313Z,12.10
2019-04-14T17:12:23.932Z,12.93
2019-04-14T17:15:00.171Z,12.50
2019-04-14T17:17:53.339Z,12.47
2019-04-14T17:20:29.570Z,12.70
2019-04-14T17:23:25.624Z,12.03
2019-04-14T17:26:07.157Z,11.73
2019-04-14T17:29:00.345Z,11.73
2019-04-14T17:31:40.501Z,11.40
2019-04-14T17:34:12.970Z,11.77
2019-04-14T17:37:06.345Z,10.97
2019-04-14T17:39:39.528Z,10.47
2019-04-14T17:42:44.562Z,11.53
2019-04-14T17:45:46.831Z,10.73
2019-04-14T17:48:39.927Z,11.40
2019-04-14T17:51:22.127Z,11.33
2019-04-14T17:54:12.085Z,11.37
2019-04-14T17:56:59.283Z,12.37
2019-04-14T17:59:45.050Z,11.83
2019-04-14T18:02:20.369Z,12.77
2019-04-14T18:05:07.411Z,12.73
2019-04-14T18:07:58.465Z,11.93
2019-04-14T18:10:35.851Z,12.47
2019-04-14T18:13:21.557Z,12.77
2019-04-14T18:16:12.153Z,11.93
2019-04-14T18:19:17.480Z,13.43
2019-04-14T18:21:45.071Z,12.83
2019-04-14T18:24:14.187Z,12.30
2019-04-14T18:26:43.898Z,13.70
2019-04-14T18:29:31.476Z,13.43
2019-04-14T18:32:04.973Z,13.23
2019-04-14T18:34:43.567Z,13.70
2019-04-14T18:37:29.735Z,12.87
2019-04-14T18:40:22.844Z,13.40
2019-04-14T18:42:58.876Z,15.73
2019-04-14T18:45:35.808Z,15.67
2019-04-14T18:48:10.627Z,16.87
2019-04-14T18:51:00.648Z,16.53
2019-04-14T18:53:47.726Z,15.63
2019-04-14T18:56:37.483Z,16.87
2019-04-14T18:59:30.293Z,15.93
2019-04-14T19:01:58.035Z,15.20
2019-04-14T19:04:25.604Z,15.47
2019-04-14T19:06:54.285Z,15.80
2019-04-14T19:09:21.845Z,14.63
2019-04-14T19:12:07.198Z,13.67
2019-04-14T19:14:39.632Z,14.60
2019-04-14T19:17:17.230Z,14.23
2019-04-14T19:20:00.798Z,15.83
2019-04-14T19:22:18.619Z,15.90
2019-04-14T19:24:46.305Z,14.13
2019-04-14T19:27:15.096Z,13.00
2019-04-14T19:29:42.747Z,13.70
2019-04-14T19:32:10.367Z,12.50
2019-04-14T19:34:37.990Z,12.10
2019-04-14T19:37:05.588Z,12.37
2019-04-14T19:39:33.594Z,13.13
2019-04-14T19:42:01.280Z,13.50
2019-04-14T19:44:28.903Z,12.37
2019-04-14T19:46:58.879Z,12.43
2019-04-14T19:49:28.253Z,13.30
2019-04-14T19:51:55.832Z,12.00
2019-04-14T19:54:23.307Z,12.93
2019-04-14T19:56:50.887Z,12.80
2019-04-14T19:59:18.781Z,12.13
2019-04-14T20:01:46.372Z,12.60
2019-04-14T20:04:13.971Z,13.17
2019-04-14T20:06:41.540Z,13.33
2019-04-14T20:09:09.351Z,13.50
2019-04-14T20:11:37.070Z,12.37
2019-04-14T20:14:05.650Z,13.27
2019-04-14T20:17:05.809Z,12.97
2019-04-14T20:20:01.165Z,12.50
2019-04-14T20:22:45.182Z,12.57
2019-04-14T20:25:33.806Z,12.67
2019-04-14T20:28:06.363Z,13.40
2019-04-14T20:30:40.592Z,12.93
2019-04-14T20:33:08.280Z,13.40
2019-04-14T20:35:37.041Z,12.87
2019-04-14T20:38:04.588Z,12.83
2019-04-14T20:40:32.208Z,13.23
2019-04-14T20:42:59.785Z,13.70
2019-04-14T20:45:27.397Z,13.30
2019-04-14T20:47:55.333Z,12.53
2019-04-14T20:50:23.065Z,14.03
2019-04-14T20:52:50.615Z,13.63
2019-04-14T20:55:18.250Z,14.73
2019-04-14T20:57:45.861Z,13.77
2019-04-14T21:00:13.564Z,13.80
2019-04-14T21:03:03.473Z,14.70
2019-04-14T21:05:51.729Z,13.47
2019-04-14T21:08:41.904Z,13.40
2019-04-14T21:11:19.013Z,13.83
2019-04-14T21:13:58.624Z,13.00
2019-04-14T21:16:34.591Z,13.17
2019-04-14T21:19:09.529Z,14.37
2019-04-14T21:21:50.511Z,13.87
2019-04-14T21:24:26.131Z,14.17
2019-04-14T21:27:16.942Z,14.17
2019-04-14T21:30:09.599Z,14.03
2019-04-14T21:32:44.643Z,13.57
2019-04-14T21:35:31.667Z,13.50
2019-04-14T21:38:07.094Z,13.23
2019-04-14T21:40:49.283Z,13.93
2019-04-14T21:43:16.933Z,13.30
2019-04-14T21:45:44.543Z,13.00
2019-04-14T21:48:12.145Z,14.33
2019-04-14T21:50:39.616Z,13.70
2019-04-14T21:53:07.281Z,14.87
2019-04-14T21:55:38.024Z,14.83
2019-04-14T21:58:19.718Z,15.07
2019-04-14T22:01:48.051Z,14.63
2019-04-14T22:04:46.927Z,13.40
2019-04-14T22:07:51.953Z,12.90
2019-04-14T22:10:22.781Z,13.67
2019-04-14T22:12:50.299Z,14.23
2019-04-14T22:15:17.907Z,13.50
2019-04-14T22:17:46.628Z,14.43
2019-04-14T22:20:14.351Z,14.27
2019-04-14T22:22:41.872Z,14.30
2019-04-14T22:25:09.650Z,14.30
2019-04-14T22:27:46.487Z,13.30
2019-04-14T22:30:14.200Z,13.87
2019-04-14T22:32:41.765Z,13.70
2019-04-14T22:35:09.401Z,14.13
2019-04-14T22:37:37.003Z,14.23
2019-04-14T22:40:05.420Z,14.07
2019-04-14T22:42:32.942Z,14.10
2019-04-14T22:45:00.429Z,14.80
2019-04-14T22:47:27.954Z,14.93
2019-04-14T22:49:55.457Z,15.37
2019-04-14T22:52:22.940Z,14.90
2019-04-14T22:54:50.541Z,14.97
2019-04-14T22:57:18.062Z,14.17
2019-04-14T22:59:45.503Z,14.63
2019-04-14T23:02:22.538Z,14.20
2019-04-14T23:05:09.545Z,13.60
2019-04-14T23:08:14.777Z,13.30
2019-04-14T23:11:06.386Z,13.47
2019-04-14T23:13:45.178Z,13.53
2019-04-14T23:16:20.644Z,13.33
2019-04-14T23:19:07.616Z,14.77
2019-04-14T23:21:54.630Z,14.37
2019-04-14T23:24:25.186Z,13.90
2019-04-14T23:26:53.376Z,12.87
2019-04-14T23:29:21.166Z,13.33
2019-04-14T23:31:48.708Z,13.80
2019-04-14T23:34:16.232Z,14.30
2019-04-14T23:36:43.726Z,14.63
2019-04-14T23:39:12.097Z,13.13
2019-04-14T23:41:39.512Z,13.17
2019-04-14T23:44:07.040Z,12.97
2019-04-14T23:46:34.624Z,14.23
2019-04-14T23:49:02.125Z,13.43
2019-04-14T23:51:29.642Z,13.67
2019-04-14T23:53:57.063Z,13.97
2019-04-14T23:56:24.608Z,13.57
2019-04-14T23:58:52.099Z,13.70
